Terminal Aerodrome Forecast
Issued by NWS Mt. Holly, NJ

Home | Current Version | Previous Version | Text Only | Print | Product List | Glossary On
Versions: 1 2 3 4 5 6 7 8 9 10 11 12
000
FTUS41 KPHI 211700 RRA
TAFILG
TAF
KILG 211741Z 2118/2218 31012G24KT P6SM SKC
     FM212100 29009KT P6SM SKC
     FM220200 VRB03KT P6SM SKC
     FM221400 21008KT P6SM SKC=

USA.gov is the U.S. government's official web portal to all federal, state and local government web resources and services.